THY3GL LTAN-LTFM
Flight info
| Callsign | THY3GL |
|---|---|
| Flight time | 0h 57m |
| Altitude | 36000 |
| Route | HISAR UB545 KFK UM855 SISPI |
| Aircraft | A320/M-SDE2E3FGHIRWY/LB1 |
Departure
| Time | 2026-04-15 09:41 |
|---|---|
| Airport | Konya Airport (LTAN) |
Arrival
| Time | 2026-04-15 10:39 |
|---|---|
| Airport | İstanbul Airport (LTFM) |
| Time | Latitude | Longitude | Altitude | Speed | Heading |
|---|---|---|---|---|---|
| 2026-04-15 09:17 | 37.98539 | 32.57555 | 3391 ft | 0 kts | 105° |
| 2026-04-15 09:28 | 37.98543 | 32.57537 | 3391 ft | 4 kts | 111° |
| 2026-04-15 09:29 | 37.98555 | 32.57508 | 3391 ft | 4 kts | 131° |
| 2026-04-15 09:29 | 37.98571 | 32.57488 | 3391 ft | 1 kts | 140° |
| 2026-04-15 09:29 | 37.98575 | 32.57485 | 3391 ft | 0 kts | 140° |
| 2026-04-15 09:33 | 37.98571 | 32.57489 | 3391 ft | 2 kts | 140° |
| 2026-04-15 09:33 | 37.98558 | 32.57493 | 3391 ft | 3 kts | 174° |
| 2026-04-15 09:33 | 37.98534 | 32.57490 | 3391 ft | 4 kts | 189° |
| 2026-04-15 09:33 | 37.98501 | 32.57479 | 3391 ft | 6 kts | 195° |
| 2026-04-15 09:34 | 37.98458 | 32.57463 | 3391 ft | 7 kts | 195° |
| 2026-04-15 09:34 | 37.98435 | 32.57414 | 3391 ft | 8 kts | 284° |
| 2026-04-15 09:34 | 37.98454 | 32.57342 | 3391 ft | 9 kts | 287° |
| 2026-04-15 09:34 | 37.98474 | 32.57259 | 3391 ft | 11 kts | 287° |
| 2026-04-15 09:35 | 37.98497 | 32.57163 | 3391 ft | 12 kts | 287° |
| 2026-04-15 09:35 | 37.98522 | 32.57055 | 3391 ft | 14 kts | 287° |
| 2026-04-15 09:35 | 37.98551 | 32.56935 | 3391 ft | 15 kts | 287° |
| 2026-04-15 09:35 | 37.98583 | 32.56802 | 3392 ft | 17 kts | 287° |
| 2026-04-15 09:36 | 37.98603 | 32.56670 | 3392 ft | 14 kts | 252° |
| 2026-04-15 09:36 | 37.98514 | 32.56614 | 3391 ft | 16 kts | 195° |
| 2026-04-15 09:36 | 37.98403 | 32.56571 | 3391 ft | 18 kts | 196° |
| 2026-04-15 09:36 | 37.98283 | 32.56526 | 3391 ft | 19 kts | 197° |
| 2026-04-15 09:37 | 37.98151 | 32.56476 | 3391 ft | 21 kts | 197° |
| 2026-04-15 09:37 | 37.98008 | 32.56423 | 3392 ft | 22 kts | 196° |
| 2026-04-15 09:37 | 37.97857 | 32.56367 | 3391 ft | 23 kts | 198° |
| 2026-04-15 09:37 | 37.97698 | 32.56305 | 3392 ft | 24 kts | 197° |
| 2026-04-15 09:38 | 37.97530 | 32.56241 | 3391 ft | 26 kts | 196° |
| 2026-04-15 09:38 | 37.97353 | 32.56174 | 3391 ft | 27 kts | 197° |
| 2026-04-15 09:38 | 37.97167 | 32.56104 | 3390 ft | 27 kts | 197° |
| 2026-04-15 09:38 | 37.97011 | 32.56041 | 3391 ft | 23 kts | 197° |
| 2026-04-15 09:39 | 37.96860 | 32.55985 | 3409 ft | 23 kts | 196° |
| 2026-04-15 09:39 | 37.96722 | 32.55935 | 3438 ft | 21 kts | 196° |
| 2026-04-15 09:39 | 37.96579 | 32.55882 | 3438 ft | 22 kts | 197° |
| 2026-04-15 09:39 | 37.96441 | 32.55829 | 3438 ft | 17 kts | 197° |
| 2026-04-15 09:40 | 37.96404 | 32.55741 | 3438 ft | 13 kts | 293° |
| 2026-04-15 09:40 | 37.96480 | 32.55680 | 3438 ft | 14 kts | 333° |
| 2026-04-15 09:40 | 37.96576 | 32.55695 | 3438 ft | 15 kts | 17° |
| 2026-04-15 09:40 | 37.96795 | 32.55781 | 3438 ft | 65 kts | 17° |
| 2026-04-15 09:41 | 37.97437 | 32.56021 | 3391 ft | 124 kts | 17° |
| 2026-04-15 09:41 | 37.98405 | 32.56390 | 3400 ft | 168 kts | 19° |
| 2026-04-15 09:41 | 37.99519 | 32.56822 | 3950 ft | 169 kts | 18° |
| 2026-04-15 09:41 | 38.00655 | 32.57263 | 4568 ft | 173 kts | 19° |
| 2026-04-15 09:42 | 38.01822 | 32.57714 | 5162 ft | 180 kts | 18° |
| 2026-04-15 09:42 | 38.03077 | 32.58243 | 5392 ft | 201 kts | 25° |
| 2026-04-15 09:42 | 38.04430 | 32.58995 | 5679 ft | 221 kts | 25° |
| 2026-04-15 09:42 | 38.05868 | 32.59777 | 6257 ft | 227 kts | 24° |
| 2026-04-15 09:43 | 38.07333 | 32.60568 | 6877 ft | 231 kts | 23° |
| 2026-04-15 09:43 | 38.08802 | 32.61360 | 7474 ft | 234 kts | 23° |
| 2026-04-15 09:43 | 38.10310 | 32.62176 | 8097 ft | 236 kts | 22° |
| 2026-04-15 09:43 | 38.11857 | 32.62934 | 8627 ft | 246 kts | 11° |
| 2026-04-15 09:44 | 38.13618 | 32.62880 | 8919 ft | 267 kts | 341° |
| 2026-04-15 09:44 | 38.15204 | 32.61579 | 9336 ft | 281 kts | 308° |
| 2026-04-15 09:44 | 38.16007 | 32.59325 | 10029 ft | 285 kts | 276° |
| 2026-04-15 09:44 | 38.16012 | 32.56715 | 10322 ft | 308 kts | 266° |
| 2026-04-15 09:45 | 38.15894 | 32.53902 | 10576 ft | 328 kts | 266° |
| 2026-04-15 09:45 | 38.15768 | 32.51011 | 11140 ft | 335 kts | 266° |
| 2026-04-15 09:45 | 38.15637 | 32.48041 | 11832 ft | 339 kts | 267° |
| 2026-04-15 09:45 | 38.15508 | 32.45036 | 12550 ft | 342 kts | 268° |
| 2026-04-15 09:46 | 38.15384 | 32.42000 | 13261 ft | 346 kts | 268° |
| 2026-04-15 09:46 | 38.15262 | 32.38935 | 13980 ft | 349 kts | 268° |
| 2026-04-15 09:46 | 38.15140 | 32.35841 | 14612 ft | 352 kts | 268° |
| 2026-04-15 09:46 | 38.15016 | 32.32718 | 15248 ft | 355 kts | 268° |
| 2026-04-15 09:47 | 38.14888 | 32.29579 | 15868 ft | 358 kts | 268° |
| 2026-04-15 09:47 | 38.14759 | 32.26455 | 16485 ft | 360 kts | 268° |
| 2026-04-15 09:47 | 38.14628 | 32.23263 | 17110 ft | 363 kts | 268° |
| 2026-04-15 09:47 | 38.14495 | 32.20047 | 17724 ft | 366 kts | 268° |
| 2026-04-15 09:48 | 38.14360 | 32.16806 | 18340 ft | 369 kts | 267° |
| 2026-04-15 09:48 | 38.14222 | 32.13533 | 18926 ft | 372 kts | 267° |
| 2026-04-15 09:48 | 38.14081 | 32.10241 | 19510 ft | 374 kts | 267° |
| 2026-04-15 09:48 | 38.13938 | 32.06929 | 20099 ft | 377 kts | 267° |
| 2026-04-15 09:49 | 38.13794 | 32.03596 | 20691 ft | 379 kts | 267° |
| 2026-04-15 09:49 | 38.13650 | 32.00288 | 21268 ft | 382 kts | 267° |
| 2026-04-15 09:49 | 38.13503 | 31.96907 | 21830 ft | 384 kts | 267° |
| 2026-04-15 09:49 | 38.13356 | 31.93509 | 22379 ft | 387 kts | 267° |
| 2026-04-15 09:50 | 38.13204 | 31.90090 | 22911 ft | 389 kts | 267° |
| 2026-04-15 09:50 | 38.13049 | 31.86649 | 23454 ft | 391 kts | 267° |
| 2026-04-15 09:50 | 38.12894 | 31.83187 | 23932 ft | 394 kts | 267° |
| 2026-04-15 09:50 | 38.12740 | 31.79708 | 24362 ft | 396 kts | 266° |
| 2026-04-15 09:51 | 38.12584 | 31.76213 | 24789 ft | 397 kts | 266° |
| 2026-04-15 09:51 | 38.12427 | 31.72703 | 25216 ft | 399 kts | 266° |
| 2026-04-15 09:51 | 38.12271 | 31.69232 | 25631 ft | 400 kts | 266° |
| 2026-04-15 09:51 | 38.12108 | 31.65696 | 26050 ft | 402 kts | 266° |
| 2026-04-15 09:52 | 38.11941 | 31.62149 | 26443 ft | 403 kts | 266° |
| 2026-04-15 09:52 | 38.11928 | 31.58589 | 26827 ft | 405 kts | 275° |
| 2026-04-15 09:52 | 38.12480 | 31.55081 | 27210 ft | 408 kts | 286° |
| 2026-04-15 09:52 | 38.13618 | 31.51765 | 27600 ft | 412 kts | 298° |
| 2026-04-15 09:53 | 38.15304 | 31.48796 | 28002 ft | 418 kts | 309° |
| 2026-04-15 09:53 | 38.17258 | 31.46056 | 28392 ft | 420 kts | 309° |
| 2026-04-15 09:53 | 38.19192 | 31.43326 | 28768 ft | 422 kts | 308° |
| 2026-04-15 09:53 | 38.21154 | 31.40540 | 29137 ft | 424 kts | 308° |
| 2026-04-15 09:54 | 38.23120 | 31.37738 | 29500 ft | 426 kts | 308° |
| 2026-04-15 09:54 | 38.25098 | 31.34919 | 29844 ft | 428 kts | 308° |
| 2026-04-15 09:54 | 38.27080 | 31.32094 | 30274 ft | 428 kts | 308° |
| 2026-04-15 09:54 | 38.29059 | 31.29277 | 30732 ft | 426 kts | 308° |
| 2026-04-15 09:55 | 38.31026 | 31.26472 | 31198 ft | 424 kts | 307° |
| 2026-04-15 09:55 | 38.32985 | 31.23677 | 31653 ft | 423 kts | 307° |
| 2026-04-15 09:55 | 38.34942 | 31.20883 | 32067 ft | 422 kts | 307° |
| 2026-04-15 09:55 | 38.36864 | 31.18133 | 32494 ft | 421 kts | 307° |
| 2026-04-15 09:56 | 38.38803 | 31.15354 | 32950 ft | 420 kts | 307° |
| 2026-04-15 09:56 | 38.40738 | 31.12579 | 33405 ft | 418 kts | 306° |
| 2026-04-15 09:56 | 38.44586 | 31.07049 | 34300 ft | 415 kts | 306° |
| 2026-04-15 09:57 | 38.46502 | 31.04301 | 34680 ft | 414 kts | 306° |
| 2026-04-15 09:57 | 38.48410 | 31.01565 | 35058 ft | 412 kts | 306° |
| 2026-04-15 09:57 | 38.50304 | 30.98834 | 35445 ft | 410 kts | 306° |
| 2026-04-15 09:57 | 38.52155 | 30.96142 | 35816 ft | 408 kts | 306° |
| 2026-04-15 09:58 | 38.54023 | 30.93413 | 36124 ft | 408 kts | 306° |
| 2026-04-15 09:58 | 38.57785 | 30.87909 | 36197 ft | 414 kts | 306° |
| 2026-04-15 09:59 | 38.61578 | 30.82361 | 36202 ft | 415 kts | 306° |
| 2026-04-15 09:59 | 38.65370 | 30.76808 | 36199 ft | 415 kts | 306° |
| 2026-04-15 10:00 | 38.69142 | 30.71281 | 36198 ft | 415 kts | 306° |
| 2026-04-15 10:00 | 38.72934 | 30.65719 | 36198 ft | 415 kts | 306° |
| 2026-04-15 10:01 | 38.76723 | 30.60142 | 36200 ft | 415 kts | 306° |
| 2026-04-15 10:01 | 38.80803 | 30.54864 | 36214 ft | 424 kts | 317° |
| 2026-04-15 10:02 | 38.85984 | 30.51119 | 36210 ft | 434 kts | 327° |
| 2026-04-15 10:02 | 38.91393 | 30.47682 | 36208 ft | 434 kts | 327° |
| 2026-04-15 10:03 | 38.96802 | 30.44221 | 36214 ft | 435 kts | 327° |
| 2026-04-15 10:03 | 39.02217 | 30.40756 | 36221 ft | 435 kts | 327° |
| 2026-04-15 10:04 | 39.07593 | 30.37310 | 36229 ft | 434 kts | 326° |
| 2026-04-15 10:04 | 39.12998 | 30.33825 | 36220 ft | 434 kts | 326° |
| 2026-04-15 10:05 | 39.18395 | 30.30330 | 36214 ft | 434 kts | 326° |
| 2026-04-15 10:05 | 39.23797 | 30.26845 | 36212 ft | 434 kts | 326° |
| 2026-04-15 10:06 | 39.29162 | 30.23383 | 36227 ft | 434 kts | 326° |
| 2026-04-15 10:06 | 39.34542 | 30.19900 | 36224 ft | 433 kts | 326° |
| 2026-04-15 10:07 | 39.39916 | 30.16418 | 36216 ft | 432 kts | 326° |
| 2026-04-15 10:07 | 39.45289 | 30.12924 | 36213 ft | 432 kts | 326° |
| 2026-04-15 10:08 | 39.50716 | 30.09649 | 36213 ft | 435 kts | 329° |
| 2026-04-15 10:08 | 39.56311 | 30.06624 | 36222 ft | 436 kts | 330° |
| 2026-04-15 10:08 | 39.59114 | 30.05127 | 36059 ft | 435 kts | 330° |
| 2026-04-15 10:09 | 39.61916 | 30.03608 | 35289 ft | 439 kts | 330° |
| 2026-04-15 10:09 | 39.64729 | 30.02053 | 34544 ft | 441 kts | 330° |
| 2026-04-15 10:09 | 39.67555 | 30.00470 | 33662 ft | 444 kts | 330° |
| 2026-04-15 10:09 | 39.70396 | 29.98869 | 32754 ft | 446 kts | 330° |
| 2026-04-15 10:10 | 39.73202 | 29.97287 | 31912 ft | 446 kts | 331° |
| 2026-04-15 10:10 | 39.76029 | 29.95699 | 31426 ft | 439 kts | 331° |
| 2026-04-15 10:10 | 39.78816 | 29.94139 | 30837 ft | 434 kts | 331° |
| 2026-04-15 10:10 | 39.81571 | 29.92591 | 30269 ft | 429 kts | 332° |
| 2026-04-15 10:11 | 39.84295 | 29.91057 | 29645 ft | 424 kts | 332° |
| 2026-04-15 10:11 | 39.86983 | 29.89540 | 29083 ft | 418 kts | 332° |
| 2026-04-15 10:11 | 39.89660 | 29.88111 | 28525 ft | 416 kts | 336° |
| 2026-04-15 10:11 | 39.92474 | 29.87218 | 27986 ft | 418 kts | 347° |
| 2026-04-15 10:12 | 39.95368 | 29.86985 | 27662 ft | 418 kts | 355° |
| 2026-04-15 10:12 | 39.98229 | 29.86993 | 27299 ft | 415 kts | 354° |
| 2026-04-15 10:12 | 40.01109 | 29.86996 | 26918 ft | 413 kts | 354° |
| 2026-04-15 10:12 | 40.03973 | 29.86993 | 26550 ft | 411 kts | 355° |
| 2026-04-15 10:13 | 40.06822 | 29.86987 | 26185 ft | 409 kts | 355° |
| 2026-04-15 10:13 | 40.09663 | 29.86980 | 25808 ft | 407 kts | 355° |
| 2026-04-15 10:13 | 40.12490 | 29.86973 | 25447 ft | 405 kts | 355° |
| 2026-04-15 10:13 | 40.15301 | 29.86965 | 25084 ft | 404 kts | 355° |
| 2026-04-15 10:14 | 40.18067 | 29.86957 | 24733 ft | 402 kts | 355° |
| 2026-04-15 10:14 | 40.20857 | 29.86950 | 24363 ft | 400 kts | 355° |
| 2026-04-15 10:14 | 40.23636 | 29.86947 | 23995 ft | 398 kts | 355° |
| 2026-04-15 10:14 | 40.26398 | 29.86946 | 23623 ft | 397 kts | 355° |
| 2026-04-15 10:15 | 40.29152 | 29.86946 | 23244 ft | 395 kts | 355° |
| 2026-04-15 10:15 | 40.31891 | 29.86946 | 22891 ft | 393 kts | 356° |
| 2026-04-15 10:15 | 40.33695 | 29.86945 | 22653 ft | 391 kts | 356° |
| 2026-04-15 10:15 | 40.36412 | 29.86942 | 22313 ft | 389 kts | 356° |
| 2026-04-15 10:16 | 40.39106 | 29.87168 | 21965 ft | 389 kts | 6° |
| 2026-04-15 10:16 | 40.42546 | 29.88498 | 21488 ft | 392 kts | 21° |
| 2026-04-15 10:16 | 40.44920 | 29.90270 | 21126 ft | 394 kts | 32° |
| 2026-04-15 10:16 | 40.47149 | 29.92328 | 20838 ft | 388 kts | 32° |
| 2026-04-15 10:17 | 40.48625 | 29.93690 | 20747 ft | 379 kts | 32° |
| 2026-04-15 10:17 | 40.50797 | 29.95445 | 20628 ft | 363 kts | 21° |
| 2026-04-15 10:17 | 40.53123 | 29.96530 | 20484 ft | 348 kts | 9° |
| 2026-04-15 10:17 | 40.55483 | 29.96943 | 20178 ft | 339 kts | 357° |
| 2026-04-15 10:18 | 40.57820 | 29.96935 | 19879 ft | 334 kts | 356° |
| 2026-04-15 10:18 | 40.60139 | 29.96922 | 19603 ft | 332 kts | 356° |
| 2026-04-15 10:18 | 40.63191 | 29.96914 | 19239 ft | 330 kts | 356° |
| 2026-04-15 10:18 | 40.64740 | 29.96913 | 19045 ft | 329 kts | 357° |
| 2026-04-15 10:19 | 40.67018 | 29.96810 | 18759 ft | 326 kts | 349° |
| 2026-04-15 10:19 | 40.69178 | 29.96162 | 18494 ft | 321 kts | 338° |
| 2026-04-15 10:19 | 40.71283 | 29.95187 | 18191 ft | 320 kts | 338° |
| 2026-04-15 10:19 | 40.73378 | 29.94218 | 17912 ft | 319 kts | 338° |
| 2026-04-15 10:20 | 40.75468 | 29.93250 | 17634 ft | 318 kts | 338° |
| 2026-04-15 10:20 | 40.77549 | 29.92286 | 17365 ft | 316 kts | 338° |
| 2026-04-15 10:20 | 40.79622 | 29.91325 | 17093 ft | 315 kts | 338° |
| 2026-04-15 10:20 | 40.81685 | 29.90371 | 16822 ft | 314 kts | 338° |
| 2026-04-15 10:21 | 40.83683 | 29.89245 | 16552 ft | 310 kts | 326° |
| 2026-04-15 10:21 | 40.85283 | 29.87446 | 16290 ft | 306 kts | 308° |
| 2026-04-15 10:21 | 40.86373 | 29.85056 | 15929 ft | 305 kts | 290° |
| 2026-04-15 10:21 | 40.86828 | 29.82338 | 15518 ft | 304 kts | 272° |
| 2026-04-15 10:22 | 40.86806 | 29.79538 | 15109 ft | 305 kts | 269° |
| 2026-04-15 10:22 | 40.86763 | 29.76733 | 14703 ft | 306 kts | 269° |
| 2026-04-15 10:22 | 40.86737 | 29.73932 | 14343 ft | 304 kts | 272° |
| 2026-04-15 10:22 | 40.86858 | 29.71159 | 14089 ft | 300 kts | 274° |
| 2026-04-15 10:23 | 40.87020 | 29.68424 | 13832 ft | 297 kts | 275° |
| 2026-04-15 10:23 | 40.87200 | 29.65707 | 13565 ft | 296 kts | 275° |
| 2026-04-15 10:23 | 40.87380 | 29.63043 | 13305 ft | 295 kts | 275° |
| 2026-04-15 10:23 | 40.87561 | 29.60354 | 13039 ft | 293 kts | 275° |
| 2026-04-15 10:24 | 40.87736 | 29.57675 | 12778 ft | 292 kts | 275° |
| 2026-04-15 10:24 | 40.87906 | 29.55012 | 12517 ft | 290 kts | 275° |
| 2026-04-15 10:24 | 40.88074 | 29.52359 | 12264 ft | 290 kts | 274° |
| 2026-04-15 10:24 | 40.88241 | 29.49707 | 12011 ft | 289 kts | 274° |
| 2026-04-15 10:25 | 40.88406 | 29.47064 | 11758 ft | 288 kts | 274° |
| 2026-04-15 10:25 | 40.88567 | 29.44474 | 11512 ft | 286 kts | 274° |
| 2026-04-15 10:25 | 40.88728 | 29.41867 | 11247 ft | 283 kts | 274° |
| 2026-04-15 10:25 | 40.88885 | 29.39274 | 10884 ft | 283 kts | 274° |
| 2026-04-15 10:26 | 40.89039 | 29.36677 | 10489 ft | 284 kts | 274° |
| 2026-04-15 10:26 | 40.89194 | 29.34069 | 10174 ft | 283 kts | 274° |
| 2026-04-15 10:26 | 40.89349 | 29.31476 | 9784 ft | 283 kts | 274° |
| 2026-04-15 10:26 | 40.89504 | 29.28901 | 9362 ft | 283 kts | 274° |
| 2026-04-15 10:27 | 40.89659 | 29.26331 | 9113 ft | 278 kts | 274° |
| 2026-04-15 10:27 | 40.89809 | 29.23788 | 8731 ft | 278 kts | 274° |
| 2026-04-15 10:27 | 40.89956 | 29.21283 | 8400 ft | 276 kts | 274° |
| 2026-04-15 10:27 | 40.90108 | 29.18747 | 8026 ft | 276 kts | 274° |
| 2026-04-15 10:28 | 40.90260 | 29.16242 | 7791 ft | 271 kts | 274° |
| 2026-04-15 10:28 | 40.90408 | 29.13769 | 7524 ft | 269 kts | 274° |
| 2026-04-15 10:28 | 40.90553 | 29.11299 | 7170 ft | 270 kts | 274° |
| 2026-04-15 10:28 | 40.90694 | 29.08830 | 6873 ft | 268 kts | 274° |
| 2026-04-15 10:29 | 40.90833 | 29.06391 | 6587 ft | 265 kts | 274° |
| 2026-04-15 10:29 | 40.90974 | 29.03956 | 6233 ft | 266 kts | 274° |
| 2026-04-15 10:29 | 40.91115 | 29.01519 | 5909 ft | 265 kts | 274° |
| 2026-04-15 10:29 | 40.91277 | 28.99089 | 5557 ft | 268 kts | 275° |
| 2026-04-15 10:30 | 40.91480 | 28.96663 | 5152 ft | 270 kts | 276° |
| 2026-04-15 10:30 | 40.91703 | 28.94212 | 4975 ft | 267 kts | 276° |
| 2026-04-15 10:30 | 40.91930 | 28.91767 | 4975 ft | 268 kts | 276° |
| 2026-04-15 10:30 | 40.92156 | 28.89315 | 4985 ft | 269 kts | 276° |
| 2026-04-15 10:31 | 40.92378 | 28.86856 | 4989 ft | 269 kts | 276° |
| 2026-04-15 10:31 | 40.92595 | 28.84399 | 4981 ft | 269 kts | 276° |
| 2026-04-15 10:31 | 40.92843 | 28.81945 | 4986 ft | 270 kts | 282° |
| 2026-04-15 10:31 | 40.93606 | 28.79703 | 4978 ft | 266 kts | 306° |
| 2026-04-15 10:32 | 40.94908 | 28.78091 | 4978 ft | 257 kts | 328° |
| 2026-04-15 10:32 | 40.96413 | 28.76921 | 4977 ft | 244 kts | 331° |
| 2026-04-15 10:32 | 40.97966 | 28.76239 | 4990 ft | 229 kts | 354° |
| 2026-04-15 10:32 | 40.99517 | 28.76182 | 4984 ft | 218 kts | 359° |
| 2026-04-15 10:33 | 41.01001 | 28.76156 | 5007 ft | 210 kts | 359° |
| 2026-04-15 10:33 | 41.02430 | 28.76128 | 5000 ft | 202 kts | 359° |
| 2026-04-15 10:33 | 41.03820 | 28.76100 | 4977 ft | 198 kts | 359° |
| 2026-04-15 10:33 | 41.05143 | 28.76074 | 4928 ft | 184 kts | 359° |
| 2026-04-15 10:34 | 41.06450 | 28.76046 | 4474 ft | 193 kts | 359° |
| 2026-04-15 10:34 | 41.07809 | 28.76019 | 4026 ft | 201 kts | 359° |
| 2026-04-15 10:34 | 41.09216 | 28.75992 | 3693 ft | 202 kts | 359° |
| 2026-04-15 10:34 | 41.10616 | 28.75965 | 3419 ft | 200 kts | 359° |
| 2026-04-15 10:35 | 41.11998 | 28.75939 | 3153 ft | 197 kts | 360° |
| 2026-04-15 10:35 | 41.13351 | 28.75913 | 2905 ft | 193 kts | 0° |
| 2026-04-15 10:35 | 41.14681 | 28.75888 | 2643 ft | 189 kts | 1° |
| 2026-04-15 10:35 | 41.15982 | 28.75863 | 2400 ft | 185 kts | 1° |
| 2026-04-15 10:36 | 41.17232 | 28.75838 | 2151 ft | 174 kts | 3° |
| 2026-04-15 10:36 | 41.18418 | 28.75816 | 1916 ft | 167 kts | 1° |
| 2026-04-15 10:36 | 41.19534 | 28.75795 | 1701 ft | 159 kts | 4° |
| 2026-04-15 10:36 | 41.20590 | 28.75774 | 1498 ft | 143 kts | 4° |
| 2026-04-15 10:37 | 41.21556 | 28.75756 | 1303 ft | 135 kts | 3° |
| 2026-04-15 10:37 | 41.22477 | 28.75739 | 1113 ft | 133 kts | 3° |
| 2026-04-15 10:37 | 41.23389 | 28.75722 | 933 ft | 130 kts | 3° |
| 2026-04-15 10:37 | 41.24299 | 28.75704 | 742 ft | 131 kts | 4° |
| 2026-04-15 10:38 | 41.25207 | 28.75685 | 582 ft | 131 kts | 3° |
| 2026-04-15 10:38 | 41.26105 | 28.75669 | 418 ft | 129 kts | 4° |
| 2026-04-15 10:38 | 41.26964 | 28.75651 | 335 ft | 114 kts | 1° |
| 2026-04-15 10:38 | 41.27607 | 28.75644 | 332 ft | 66 kts | 358° |
| 2026-04-15 10:39 | 41.27895 | 28.75631 | 333 ft | 18 kts | 352° |
| 2026-04-15 10:39 | 41.28036 | 28.75575 | 333 ft | 24 kts | 333° |
| 2026-04-15 10:39 | 41.28166 | 28.75455 | 333 ft | 20 kts | 290° |
| 2026-04-15 10:39 | 41.28094 | 28.75351 | 334 ft | 17 kts | 189° |
| 2026-04-15 10:40 | 41.27971 | 28.75351 | 332 ft | 19 kts | 179° |
| 2026-04-15 10:40 | 41.27832 | 28.75354 | 332 ft | 21 kts | 178° |
| 2026-04-15 10:40 | 41.27688 | 28.75357 | 333 ft | 20 kts | 179° |
| 2026-04-15 10:40 | 41.27625 | 28.75346 | 333 ft | 4 kts | 232° |
| 2026-04-15 10:41 | 41.27624 | 28.75297 | 334 ft | 7 kts | 271° |
| 2026-04-15 10:41 | 41.27624 | 28.75224 | 334 ft | 9 kts | 270° |
| 2026-04-15 10:41 | 41.27622 | 28.75129 | 333 ft | 10 kts | 269° |
| 2026-04-15 10:41 | 41.27603 | 28.75088 | 333 ft | 5 kts | 181° |
| 2026-04-15 10:42 | 41.27589 | 28.75088 | 332 ft | 2 kts | 180° |
| 2026-04-15 10:42 | 41.27578 | 28.75088 | 330 ft | 2 kts | 179° |
| 2026-04-15 10:42 | 41.27573 | 28.75088 | 330 ft | 0 kts | 179° |